Weather Models
Both GFS & NAM
00z 06z 12z 18z
24hr Precip
00z 06z 12z 18z
36hr Simulated radar
00z 06z 12z 18z
SKEWT Soundings
00z 12z
Current Conditions (Updated 12:35am on 6/26/16)
Temperature
 75°
-1.48
76°  
75°  
0
10
20
30
40
50
60
70
80
90
100
Dew Point
56°
56°  
54°  
-20
-10
0
10
20
30
40
50
60
70
80
Heat Index
76°
77°  
76°  
30
40
50
60
70
80
90
100
110
120
130
Heat Index
Humidity
50%
50% 
46% 
0
10
20
30
40
50
60
70
80
90
100
Barometer
30.22
   Steady
30.22  
30.22  
28.00
28.30
28.60
28.90
29.20
29.50
29.80
30.10
30.40
30.70
31.00
Temperature
Dew Point
Humidity
Pressure
Wind
6mph
  S
Daily Rain
.00
.05
.10
.15
.20
.25
.30
.35
.40
.45
.50
Rain Today
 0.00" 
Month Rain
0.00
0.20
0.40
0.60
0.80
1.00
1.20
1.40
1.60
1.80
2.00
Month Rain
 1.83" 
Year Rain
0.00
2.50
5.00
7.50
10.00
12.50
15.00
17.50
20.00
22.50
25.00
Year Rain
 18.58" 
Sun & Moon Data
Sunrise 5:34am
Sunset 8:34pm
Moonrise 12:05am
Moonset 11:54am
Moon % 69%
Other Rain Data
Past Hour 0.00 Past 24 Hours 0.00
Past 3 Hours 0.00 Past 7 Days 0.20
Past 6 Hours 0.00
Cloud Height
4978


Current Front Map
Current Satellite map
7 Day Forecast
NWS Forecast for Philadelphia PA
National Weather Service Forecast for: Philadelphia PA
Issued by: National Weather Service Philadelphia, PA
Updated: 9:35 pm EDT Jun 25, 2016

Philadelphia
 
Overnight

Overnight: Mostly clear, with a low around 63. Calm wind.
Mostly Clear

Sunday

Sunday: Sunny, with a high near 89. Calm wind becoming south around 6 mph in the afternoon.
Sunny

Sunday
Night
Sunday Night: Mostly clear, with a low around 64. South wind 5 to 8 mph.
Mostly Clear

Monday

Monday: Mostly sunny, with a high near 88. South wind 5 to 11 mph.
Mostly Sunny

Monday
Night
Monday Night: A chance of showers and thunderstorms.  Mostly cloudy, with a low around 71. South wind 6 to 10 mph.  Chance of precipitation is 40%. New rainfall amounts between a tenth and quarter of an inch, except higher amounts possible in thunderstorms.
Chance
Showers then
Chance
T-storms
Tuesday

Tuesday: A chance of showers and thunderstorms.  Mostly cloudy, with a high near 85. Chance of precipitation is 50%. New rainfall amounts between a tenth and quarter of an inch, except higher amounts possible in thunderstorms.
Chance
T-storms

Tuesday
Night
Tuesday Night: A chance of showers and thunderstorms.  Mostly cloudy, with a low around 67. Chance of precipitation is 40%.
Chance
T-storms

Wednesday

Wednesday: A chance of showers and thunderstorms before 2pm.  Partly sunny, with a high near 83. Chance of precipitation is 30%.
Chance
T-storms

Wednesday
Night
Wednesday Night: Partly cloudy, with a low around 64.
Partly Cloudy

Lo 63 °F Hi 89 °F Lo 64 °F Hi 88 °F Lo 71 °F Hi 85 °F Lo 67 °F Hi 83 °F Lo 64 °F

Air Quality Alert
 

Overnight
 
Mostly clear, with a low around 63. Calm wind.
Sunday
 
Sunny, with a high near 89. Calm wind becoming south around 6 mph in the afternoon.
Sunday Night
 
Mostly clear, with a low around 64. South wind 5 to 8 mph.
Monday
 
Mostly sunny, with a high near 88. South wind 5 to 11 mph.
Monday Night
 
A chance of showers and thunderstorms. Mostly cloudy, with a low around 71. South wind 6 to 10 mph. Chance of precipitation is 40%. New rainfall amounts between a tenth and quarter of an inch, except higher amounts possible in thunderstorms.
Tuesday
 
A chance of showers and thunderstorms. Mostly cloudy, with a high near 85. Chance of precipitation is 50%. New rainfall amounts between a tenth and quarter of an inch, except higher amounts possible in thunderstorms.
Tuesday Night
 
A chance of showers and thunderstorms. Mostly cloudy, with a low around 67. Chance of precipitation is 40%.
Wednesday
 
A chance of showers and thunderstorms before 2pm. Partly sunny, with a high near 83. Chance of precipitation is 30%.
Wednesday Night
 
Partly cloudy, with a low around 64.
Thursday
 
Mostly sunny, with a high near 85.
Thursday Night
 
Partly cloudy, with a low around 67.
Friday
 
A chance of showers and thunderstorms. Partly sunny, with a high near 86. Chance of precipitation is 30%.
Friday Night
 
Partly cloudy, with a low around 66.
Saturday
 
A chance of showers and thunderstorms. Mostly sunny, with a high near 86. Chance of precipitation is 30%.

 

Forecast from NOAA-NWS for Philadelphia PA.

Area Weather Current Conditions
Nearby METAR Reports

KPHL - Philadelphia, Pennsylvania
Updated: Sat, 25-Jun-2016 11:54pm EDT
Few Clouds
Few Clouds
 Wind from S
Wind: S 5 mph , 7 km/h
Temperature: 72°F , 22°C
Dew Point: 55°F , 13°C
Humidity: 57%
Barometer: 30.21 inHg , 1023 hPa
Clouds: Few Clouds
Visibility: 10 miles , 16 km
Cloud details: Few Clouds 25000 ft
2016/06/26 03:54 KPHL 260354Z 19004KT 10SM FEW250 22/13 A3021 RMK AO2 SLP229 T02170128
KMPO - Mt. Pocono, Pennsylvania
Updated: Sat, 25-Jun-2016 11:53pm EDT
Partly Cloudy
Partly Cloudy
 Wind from ESE
Wind: ESE 5 mph , 7 km/h
Temperature: 61°F , 16°C
Dew Point: 54°F , 12°C
Humidity: 77%
Barometer: 30.24 inHg , 1024 hPa
Clouds: Partly Cloudy
Visibility: 10 miles , 16 km
Cloud details: Partly Cloudy 6000 ft
2016/06/26 03:53 KMPO 260353Z AUTO 11004KT 10SM SCT060 16/12 A3024 RMK AO2 SLP232 T01610122
 
KACY - Atlantic City, New Jersey
Updated: Sat, 25-Jun-2016 11:54pm EDT
Clear
Clear
 
Temperature: 61°F , 16°C
Dew Point: 57°F , 14°C
Humidity: 88%
Barometer: 30.21 inHg , 1023 hPa
Clouds: Clear
Visibility: 10 miles , 16 km
2016/06/26 03:54 KACY 260354Z 10SM CLR 16/14 A3021 RMK AO2 SLP229 T01610144
KMIV - Millville, New Jersey
Updated: Sat, 25-Jun-2016 11:54pm EDT
Clear
Clear
 Wind from calm
Wind: Calm
Temperature: 61°F , 16°C
Dew Point: 57°F , 14°C
Humidity: 88%
Barometer: 30.21 inHg , 1023 hPa
Clouds: Clear
Visibility: 10 miles , 16 km
2016/06/26 03:54 KMIV 260354Z AUTO 00000KT 10SM CLR 16/14 A3021 RMK AO2 SLP230 T01560139
 
KWWD - Wildwood, New Jersey
Updated: Sun, 26-Jun-2016 12:15am EDT
Clear
Clear
 Wind from calm
Wind: Calm
Temperature: 63°F , 17°C
Dew Point: 59°F , 15°C
Humidity: 88%
Barometer: 30.22 inHg , 1023.4 hPa
Clouds: Clear
Visibility: 10 miles , 16 km
2016/06/26 04:15 KWWD 260415Z AUTO 00000KT 10SM CLR 17/15 A3022 RMK AO1
KDOV - Dover Afb, Delaware
Updated: Sat, 25-Jun-2016 11:58pm EDT
Clear
Clear
 Wind from S
Wind: S 5 mph , 7 km/h
Temperature: 66°F , 19°C
Dew Point: 66°F , 19°C
Humidity: 100%
Barometer: 30.21 inHg , 1023 hPa
Clouds: Clear
Visibility: 10 miles , 16 km
2016/06/26 03:58 KDOV 260358Z AUTO 17004KT 10SM CLR 19/19 A3021 RMK AO2 SLP233 T01880188 VISNO RWY19 CHINO RWY19 $
Severe Weather Map
Recent Forum Post
[Philadelphia] 2015 -2016 Winter snow forecast by JC April 19, 2016, 09:42:40 AM
[Philadelphia] Latest Models on Weekend Storm (Photos) by JC January 23, 2016, 12:01:03 PM
[Philadelphia] Possible large snow storm for end of week ? by JC January 21, 2016, 09:17:47 AM
[Philadelphia] El Nino! by vicente6 September 16, 2015, 01:57:08 AM
[Philadelphia] Early prediction for this winter? by xyonist February 19, 2015, 06:27:46 PM
[Philadelphia] Snow Storm 1/26 by JC January 28, 2015, 10:33:24 AM
[Philadelphia] Next 7 days by JC January 22, 2015, 01:40:35 AM
[Philadelphia] 2014 - 2015 winter snow forecast by xyonist November 25, 2014, 03:01:56 PM